ADDS METAR Data INFO
IDs: Format: Raw Decoded Include TAF

Data at: 0731 UTC 18 Oct 2017

KSAV 180653Z AUTO 02010KT 10SM CLR 13/08 A3024 RMK AO2 SLP238 T01330078
KSAV 180553Z AUTO 02008KT 10SM CLR 13/08 A3024 RMK AO2 SLP240 T01280083 10156 20128 56008
KSAV 180453Z AUTO 02008KT 10SM CLR 13/09 A3025 RMK AO2 SLP241 T01330089 402220128
KSAV 180353Z 03008KT 10SM CLR 13/09 A3026 RMK AO2 SLP246 LAST T01330089
KSAV 180153Z 05008KT 10SM CLR 14/08 A3026 RMK AO2 SLP246 T01440078
KSAV 180053Z 05006KT 10SM CLR 15/08 A3025 RMK AO2 SLP243 T01500078
KSAV 172353Z 05006KT 10SM CLR 16/07 A3024 RMK AO2 SLP239 T01560072 10222 20156 53011
KSAV 172253Z 04006KT 10SM FEW045 SCT250 18/06 A3022 RMK AO2 SLP232 T01780056
KSAV 172153Z 04010KT 10SM SCT250 20/03 A3021 RMK AO2 SLP229 T02000033
KSAV 172053Z 04013G18KT 10SM SCT250 21/03 A3021 RMK AO2 SLP228 T02110033 56010
KSAV 171953Z 04012G16KT 10SM SCT250 22/06 A3021 RMK AO2 SLP229 T02220061
KSAV 171853Z 05010G17KT 10SM SCT250 22/07 A3021 RMK AO2 SLP230 T02170067
KSAV 171753Z 04010KT 10SM BKN250 20/08 A3024 RMK AO2 SLP238 T02000083 10206 20133 58012
KSAV 171653Z 03010G19KT 10SM BKN250 18/09 A3026 RMK AO2 SLP247 T01830089
KSAV 171453Z 03011G19KT 10SM BKN250 15/08 A3027 RMK AO2 SLP250 T01500083 51019
KSAV 171353Z 02010KT 10SM FEW210 BKN250 14/08 A3026 RMK AO2 SLP247 T01390083
KSAV 171253Z 02010KT 10SM BKN250 13/09 A3025 RMK AO2 SLP241 T01330094
KSAV 171153Z 02012KT 10SM BKN250 13/10 A3022 RMK AO2 SLP231 70028 T01330100 10167 20128 51015
KSAV 171053Z 01012KT 10SM OVC250 13/11 A3020 RMK AO2 SLP227 T01330106
KSAV 170953Z 02010KT 10SM BKN250 14/11 A3019 RMK AO2 SLP221 T01390111
KSAV 170853Z AUTO 01007KT 10SM CLR 14/12 A3017 RMK AO2 SLP215 T01390122 53002
KSAV 170753Z AUTO 03008KT 10SM CLR 15/13 A3016 RMK AO2 SLP211 T01500128
KSAV 170709Z AUTO 03012KT 10SM SCT025 16/13 A3016 RMK AO2 T01560128
KSAV 170653Z AUTO 02009KT 10SM BKN025 16/13 A3016 RMK AO2 SLP213 T01560128
KSAV 170651Z AUTO 03012KT 10SM BKN025 16/13 A3016 RMK AO2
KSAV 170553Z AUTO 03010KT 10SM OVC060 17/13 A3016 RMK AO2 SLP212 T01670128 10222 20167 53008
KSAV 170453Z AUTO 03009KT 10SM OVC060 17/13 A3015 RMK AO2 SLP209 T01720128 403110172
KSAV 170353Z 03014G19KT 10SM BKN060 18/12 A3014 RMK AO2 SLP205 LAST T01780122
KSAV 170253Z 03014G21KT 10SM BKN041 OVC055 18/12 A3014 RMK AO2 SLP204 T01780122 53023
KSAV 170153Z 02012G18KT 10SM BKN041 OVC050 19/14 A3011 RMK AO2 PK WND 02029/0054 SLP194 T01890139
KSAV 170111Z 02015G26KT 10SM SCT021 OVC041 19/14 A3008 RMK AO2 PK WND 02029/0054 T01940139
KSAV 170053Z 02018G26KT 10SM FEW013 BKN020 OVC035 20/17 A3007 RMK AO2 PK WND 01026/0053 SLP182 T02000167
KSAV 170051Z 02017G23KT 10SM FEW013 BKN020 OVC035 20/17 A3007 RMK AO2
KSAV 162353Z 03015G23KT 10SM BKN014 BKN027 OVC035 22/20 A3002 RMK AO2 SLP165 60028 T02220200 10311 20222 53025
KSAV 162347Z 03013G23KT 10SM BKN014 BKN020 OVC035 23/21 A3001 RMK AO2
KSAV 162253Z 00000KT 10SM SCT014 BKN048CB BKN075 24/21 A2997 RMK AO2 RAB07E30 SLP148 CB NE-SE P0026 T02390211
KSAV 162220Z 12011KT 5SM R10/1600VP6000FT +RA BR FEW003 SCT036CB BKN060 23/22 A2995 RMK AO2 RAB07 CB N AND SW AND DSNT NE-SE P0025 T02330217
KSAV 162211Z 02013KT 1SM R10/4500VP6000FT RA BR SCT036CB BKN060 BKN090 BKN220 25/23 A2995 RMK AO2 RAB07 CB N AND SW AND DSNT NE-SE P0000 T02500233
KSAV 162153Z 00000KT 10SM SCT036CB BKN060 BKN090 BKN220 26/23 A2995 RMK AO2 SLP141 CB N AND SW AND DSNT NE-SE T02610228
KSAV 162053Z 34005KT 10SM SCT041 SCT060 BKN090 BKN250 24/22 A2995 RMK AO2 LTG DSNT E AND SE RAE36 TSE03E06 SLP140 CB DSNT NE-SE P0000 60002 T02440222 56007
KSAV 162012Z 27005KT 9SM -RA BKN041CB BKN060 BKN120 BKN250 24/23 A2994 RMK AO2 LTG DSNT E-SW TSE03E06 CB OHD AND NE-SE-SW-W MOV E P0000 T02390228
KSAV 161953Z 23007KT 6SM -TSRA BR BKN041CB BKN060 BKN120 BKN250 24/22 A2995 RMK AO2 LTG DSNT E AND SW RAB1859E32B36 TSB28 SLP141 CB OHD AND NE-SE-SW-W MOV E P0002 T02440222
KSAV 161934Z 30004KT 10SM TS BKN041CB BKN060 BKN120 BKN250 25/22 A2994 RMK AO2 LTG DSNT NE AND W RAB1859E32 TSB28 CB ALQDS MOV E P0000 T02500217